Home > Products > Valid Products > MTR

000
SAUS45 KRIW 202257
MTRP60
METAR KP60 202256Z AUTO VRB03KT M01/M09 A3003 RMK AO1 SLP191
T10061094





000
SAUS45 KRIW 202157
MTRP60
METAR KP60 202156Z AUTO VRB04KT 01/M09 A3002 RMK AO1 SLP182
T00111094





000
SAUS45 KRIW 202057
MTRP60
METAR KP60 202056Z AUTO VRB03KT 01/M09 A3003 RMK AO1 SLP187
T00111094 56016





000
SAUS45 KRIW 201957
MTRP60
METAR KP60 201956Z AUTO 00000KT 01/M09 A3005 RMK AO1 SLP197
T00111094





000
SAUS45 KRIW 201857
MTRP60
METAR KP60 201856Z AUTO VRB03KT M01/M10 A3006 RMK AO1 SLP214
T10061100





000
SAUS45 KRIW 201758
MTRP60
METAR KP60 201756Z AUTO VRB03KT M01/M09 A3009 RMK AO1 SLP226
T10111094 11011 21117 58001





000
SAUS45 KRIW 201657
MTRP60
METAR KP60 201656Z AUTO 00000KT M02/M07 A3010 RMK AO1 SLP234
T10221072





000
SAUS45 KRIW 201557
MTRP60
METAR KP60 201556Z AUTO 00000KT M08/M10 A3009 RMK AO1 SLP250
T10781100





000
SAUS45 KRIW 201457
MTRP60
METAR KP60 201456Z AUTO 29003KT M11/M13 A3009 RMK AO1 SLP255
T11111128 53005





000
SAUS45 KRIW 201357
MTRP60
METAR KP60 201356Z AUTO 30004KT M12/M13 A3007 RMK AO1 SLP243
T11171128





000
SAUS45 KRIW 201257
MTRP60
METAR KP60 201256Z AUTO 31003KT M09/M11 A3007 RMK AO1 SLP222
T10941111





000
SAUS45 KRIW 201157
MTRP60
METAR KP60 201156Z AUTO 30003KT M09/M11 A3007 RMK AO1 SLP221
T10941106 11067 21128 55004





000
SAUS45 KRIW 201057
MTRP60
METAR KP60 201056Z AUTO 00000KT M08/M09 A3007 RMK AO1 SLP208
T10781094





000
SAUS45 KRIW 200957
MTRP60
METAR KP60 200956Z AUTO 00000KT M07/M09 A3008 RMK AO1 SLP206
T10721089





000
SAUS45 KRIW 200957
MTRP60
METAR KP60 200956Z AUTO 00000KT M07/M09 A3008 RMK AO1 SLP206
T10721089





000
SAUS45 KRIW 200857
MTRP60
METAR KP60 200856Z AUTO 30003KT M08/M09 A3009 RMK AO1 SLP208
T10781094 50000





000
SAUS45 KRIW 200757
MTRP60
METAR KP60 200756Z AUTO 00000KT M09/M11 A3010 RMK AO1 SLP216
T10891106





000
SAUS45 KRIW 200657
MTRP60
METAR KP60 200656Z AUTO 29003KT M11/M13 A3010 RMK AO1 SLP225
T11111128 400111150





000
SAUS45 KRIW 200557
MTRP60
METAR KP60 200556Z AUTO 00000KT M12/M13 A3009 RMK AO1 SLP230
T11171133 11033 21122 57007





000
SAUS45 KRIW 200457
MTRP60
METAR KP60 200456Z AUTO 30003KT M12/M14 A3010 RMK AO1 SLP242
T11171139





000
SAUS45 KRIW 200357
MTRP60
METAR KP60 200356Z AUTO 00000KT M11/M13 A3010 RMK AO1 SLP262
T11111128





000
SAUS45 KRIW 200357
MTRP60
METAR KP60 200356Z AUTO 00000KT M11/M13 A3010 RMK AO1 SLP262
T11111128





000
SAUS45 KRIW 200257
MTRP60
METAR KP60 200256Z AUTO 30003KT M09/M12 A3011 RMK AO1 SLP279
T10941117 52007





000
SAUS45 KRIW 200158
MTRP60
METAR KP60 200156Z AUTO 00000KT M08/M11 A3010 RMK AO1 SLP266
T10781106





000
SAUS45 KRIW 200057
MTRP60
METAR KP60 200056Z AUTO 00000KT M04/M10 A3010 RMK AO1 SLP250
T10441100





000
SAUS45 KRIW 192258
MTRP60
METAR KP60 192256Z AUTO VRB04KT M02/M09 A3009 RMK AO1 SLP229
T10171089





000
SAUS45 KRIW 192157
MTRP60
METAR KP60 192156Z AUTO VRB03KT 00/M08 A3007 RMK AO1 SLP212
T00001083





000
SAUS45 KRIW 192058
MTRP60
METAR KP60 192056Z AUTO VRB05KT 01/M08 A3007 RMK AO1 SLP209
T00061083 56016





000
SAUS45 KRIW 191957
MTRP60
METAR KP60 191956Z AUTO 00000KT 01/M08 A3008 RMK AO1 SLP210
T00061083





000
SAUS45 KRIW 191857
MTRP60
METAR KP60 191856Z AUTO 00000KT M01/M09 A3011 RMK AO1 SLP223
T10061089





000
SAUS45 KRIW 191757
MTRP60
METAR KP60 191756Z AUTO VRB03KT M02/M08 A3013 RMK AO1 SLP238
T10221083 11022 21150 58006





000
SAUS45 KRIW 191657
MTRP60
METAR KP60 191656Z AUTO VRB03KT M04/M09 A3015 RMK AO1 SLP252
T10391089





000
SAUS45 KRIW 191557
MTRP60
METAR KP60 191556Z AUTO 00000KT M11/M13 A3015 RMK AO1 SLP277
T11061133





000
SAUS45 KRIW 191458
MTRP60
METAR KP60 191456Z AUTO 30003KT M15/M17 A3015 RMK AO1 SLP294
T11501167 56001





000
SAUS45 KRIW 191357
MTRP60
METAR KP60 191356Z AUTO 30003KT M14/M16 A3015 RMK AO1 SLP285
T11441161





000
SAUS45 KRIW 191257
MTRP60
METAR KP60 191256Z AUTO 31003KT M14/M16 A3015 RMK AO1 SLP281
T11391156





000
SAUS45 KRIW 191158
MTRP60
METAR KP60 191156Z AUTO 30003KT M13/M14 A3016 RMK AO1 SLP279
T11331144 11089 21133 58003





000
SAUS45 KRIW 191057
MTRP60
METAR KP60 191056Z AUTO 29003KT M12/M13 A3017 RMK AO1 SLP272
T11221133





000
SAUS45 KRIW 190957
MTRP60
METAR KP60 190956Z AUTO 00000KT M11/M12 A3017 RMK AO1 SLP262
T11061122





000
SAUS45 KRIW 190957
MTRP60
METAR KP60 190956Z AUTO 00000KT M11/M12 A3017 RMK AO1 SLP262
T11061122





000
SAUS45 KRIW 190857
MTRP60
METAR KP60 190856Z AUTO 00000KT M09/M11 A3017 RMK AO1 SLP259
T10941111 58004





000
SAUS45 KRIW 190757
MTRP60
METAR KP60 190756Z AUTO 00000KT M09/M11 A3017 RMK AO1 SLP264
T10891111





000
SAUS45 KRIW 190657
MTRP60
METAR KP60 190656Z AUTO 00000KT M09/M11 A3019 RMK AO1 SLP273
T10891111 410391206





000
SAUS45 KRIW 190557
MTRP60
METAR KP60 190556Z AUTO 00000KT M09/M12 A3018 RMK AO1 SLP280
T10941117 11067 21100 57005





000
SAUS45 KRIW 190458
MTRP60
METAR KP60 190456Z AUTO 00000KT M10/M12 A3019 RMK AO1 SLP291
T11001122





000
SAUS45 KRIW 190357
MTRP60
METAR KP60 190356Z AUTO 00000KT M10/M12 A3019 RMK AO1 SLP312
T11001122





000
SAUS45 KRIW 190257
MTRP60
METAR KP60 190256Z AUTO 00000KT M09/M12 A3020 RMK AO1 SLP320
T10941117 58001





000
SAUS45 KRIW 190157
MTRP60
METAR KP60 190156Z AUTO 00000KT M08/M11 A3021 RMK AO1 SLP322
T10831111





000
SAUS45 KRIW 190057
MTRP60
METAR KP60 190056Z AUTO 00000KT M07/M12 A3021 RMK AO1 SLP317
T10721117





000
SAUS45 KRIW 182358
MTRP60
METAR KP60 182356Z AUTO VRB03KT M07/M11 A3021 RMK AO1 SLP317
T10671111 11039 21089 53002





000
SAUS45 KRIW 182257
MTRP60
METAR KP60 182256Z AUTO VRB03KT M05/M11 A3020 RMK AO1 SLP310
T10501106





000
SAUS45 KRIW 182157
MTRP60
METAR KP60 182156Z AUTO VRB03KT M04/M11 A3019 RMK AO1 SLP308
T10441106





000
SAUS45 KRIW 182157
MTRP60
METAR KP60 182156Z AUTO VRB03KT M04/M11 A3019 RMK AO1 SLP308
T10441106





000
SAUS45 KRIW 182058
MTRP60
METAR KP60 182056Z AUTO 00000KT M04/M11 A3020 RMK AO1 SLP305
T10391106 56014





000
SAUS45 KRIW 181958
MTRP60
METAR KP60 181956Z AUTO VRB03KT M06/M12 A3021 RMK AO1 SLP316
T10561122





000
SAUS45 KRIW 181857
MTRP60
METAR KP60 181856Z AUTO 00000KT M07/M12 A3023 RMK AO1 SLP321
T10721122





000
SAUS45 KRIW 181758
MTRP60
METAR KP60 181756Z AUTO 00000KT M09/M12 A3025 RMK AO1 SLP341
T10891122 11089 21194 53001





000
SAUS45 KRIW 181657
MTRP60
METAR KP60 181656Z AUTO 00000KT M10/M13 A3024 RMK AO1 SLP339
T11001128





000
SAUS45 KRIW 181557
MTRP60
METAR KP60 181556Z AUTO 29003KT M16/M17 A3025 RMK AO1 SLP361
T11561172





000
SAUS45 KRIW 181458
MTRP60
METAR KP60 181456Z AUTO 29003KT M17/M19 A3025 RMK AO1 SLP361
T11721194 56001





000
SAUS45 KRIW 181357
MTRP60
METAR KP60 181356Z AUTO 30003KT M18/M21 A3025 RMK AO1 SLP361
T11831206





000
SAUS45 KRIW 181257
MTRP60
METAR KP60 181256Z AUTO 30003KT M18/M21 A3024 RMK AO1 SLP352
T11831206





000
SAUS45 KRIW 181157
MTRP60
METAR KP60 181156Z AUTO 31003KT M19/M22 A3025 RMK AO1 SLP340
T11941217 11178 21206 58001





000
SAUS45 KRIW 181057
MTRP60
METAR KP60 181056Z AUTO 30003KT M20/M23 A3025 RMK AO1 SLP333
T12001228





000
SAUS45 KRIW 180957
MTRP60
METAR KP60 180956Z AUTO 31003KT M21/M23 A3025 RMK AO1 SLP330
T12061228





000
SAUS45 KRIW 180957
MTRP60
METAR KP60 180956Z AUTO 31003KT M21/M23 A3025 RMK AO1 SLP330
T12061228





000
SAUS45 KRIW 180857
MTRP60
METAR KP60 180856Z AUTO 00000KT M20/M22 A3025 RMK AO1 SLP329
T12001222 58001





000
SAUS45 KRIW 180757
MTRP60
METAR KP60 180756Z AUTO 30003KT M19/M21 A3025 RMK AO1 SLP325
T11891211





000
SAUS45 KRIW 180657
MTRP60
METAR KP60 180656Z AUTO 30003KT M18/M21 A3026 RMK AO1 SLP331
T11781206 410441250





000
SAUS45 KRIW 180557
MTRP60
METAR KP60 180556Z AUTO 31004KT M19/M21 A3025 RMK AO1 SLP342
T11891211 11083 21189 58004





000
SAUS45 KRIW 180457
MTRP60
METAR KP60 180456Z AUTO 30004KT M18/M21 A3027 RMK AO1 SLP353
T11831206





000
SAUS45 KRIW 180357
MTRP60
METAR KP60 180356Z AUTO 30003KT M18/M20 A3027 RMK AO1 SLP379
T11781200





000
SAUS45 KRIW 180258
MTRP60
METAR KP60 180256Z AUTO 29003KT M17/M19 A3027 RMK AO1 SLP396
T11671189 53005





000
SAUS45 KRIW 180157
MTRP60
METAR KP60 180156Z AUTO 00000KT M15/M17 A3026 RMK AO1 SLP392
T11501167





000
SAUS45 KRIW 180058
MTRP60
METAR KP60 180056Z AUTO 00000KT M13/M15 A3026 RMK AO1 SLP378
T11281150





000
SAUS45 KRIW 172357
MTRP60
METAR KP60 172356Z AUTO VRB03KT M08/M12 A3025 RMK AO1 SLP359
T10831122 11044 21089 53004





    US Dept of Commerce
    National Oceanic and Atmospheric Administration
    National Weather Service
    1325 East West Highway
    Silver Spring, MD 20910
    Page Author: NWS Internet Services Team
Disclaimer
Information Quality
Credits
Glossary
Privacy Policy
Freedom of Information Act (FOIA)
About Us
Career Opportunities